Eagle Turin — 9VMG6 — position and weather

sailwx.info

Track history (hours):
 
Tides and Currents Weather Stations Pressure Air Temp Water Temp Dewpoint Dewpoint Depression Visibility Wind Speed Wind Dir Waves Ship Positions

Eagle Turin

Last reported at 2015-Aug-04 11:00 UTC. Time now 2015-Aug-05 06:23 UTC.
Position N 43°24' W 003°06'.

Length 246 m; draft 12 m.

Type: Tanker. MMSI: 565770000.

Wind from 060 at 8 knots

Waves 0.5 meters (2 feet), 5 second period

Barometer 1017.0 mb
Air temperature 25.0 ° C
Visibility: greater than 5.4 NM
Dewpoint 19.1 ° C

Date/timePositionNaut miles runAvg speedWind from/ knotsBaromVisibWave heightAir tempDewpointWater temp
2015-Aug-04 11:00N 43°24' W 003°06'1 0.0 060 / 81017.0 5.4 0.525.019.1
2015-Aug-03 12:22N 43°24' W 003°06'0 0.0
2015-Aug-03 06:10N 43°24' W 003°07'0 0.1
2015-Aug-03 05:28N 43°24' W 003°07'0 0.1
2015-Aug-03 04:31N 43°24' W 003°07'0 0.1
2015-Aug-03 03:31N 43°24' W 003°07'0 0.1
2015-Aug-03 02:31N 43°23' W 003°07'0 0.1
2015-Aug-03 01:31N 43°24' W 003°06'0 0.0
2015-Aug-02 22:31N 43°24' W 003°06'0 0.0
2015-Aug-02 07:11N 43°24' W 003°07'0 0.0
2015-Aug-02 02:11N 43°24' W 003°07'25 4.5
2015-Aug-01 20:30N 43°47' W 003°20'14112.5
2015-Aug-01 09:12N 45°55' W 004°41'1112.7
2015-Aug-01 08:19N 46°06' W 004°47'2212.7
2015-Aug-01 06:33N 46°26' W 005°01'2913.2
2015-Aug-01 04:24N 46°52' W 005°17'1213.7
2015-Aug-01 03:34N 47°02' W 005°25'1413.6
2015-Aug-01 02:33N 47°15' W 005°33'1412.7
2015-Aug-01 01:27N 47°28' W 005°41'15610.8
2015-Jul-31 11:00N 49°42' W 003°42'3211.5 360 / 51020.0 5.4 0.520.016.9
2015-Jul-31 08:13N 50°12' W 003°25'811.8
2015-Jul-31 07:33N 50°20' W 003°24'7 7.0
2015-Jul-31 06:34N 50°25' W 003°17'1211.6
2015-Jul-31 05:33N 50°25' W 002°59'4313.6
2015-Jul-31 02:25N 50°23' W 001°52'1615.7
2015-Jul-31 01:25N 50°23' W 001°27'1416.1
2015-Jul-31 00:33N 50°22' W 001°05'2913.8
2015-Jul-30 22:26N 50°27' W 000°20'2111.3
2015-Jul-30 20:33N 50°33' E 000°12'1010.2
2015-Jul-30 19:33N 50°35' E 000°28'1111.2
2015-Jul-30 18:33N 50°40' E 000°44'1313.0
2015-Jul-30 17:33N 50°47' E 001°01'1514.0
2015-Jul-30 16:31N 50°56' E 001°19'1414.2
2015-Jul-30 15:33N 51°06' E 001°34'1212.5
2015-Jul-30 14:33N 51°15' E 001°47'1211.5
2015-Jul-30 13:33N 51°25' E 001°55'1111.1
2015-Jul-30 12:33N 51°33' E 002°07'23510.6
2015-Jul-29 14:20N 55°13' W 000°16'7712.9
2015-Jul-29 08:21N 56°05' W 001°56'911.1
2015-Jul-29 07:33N 56°09' W 002°10'1212.3
2015-Jul-29 06:33N 56°09' W 002°32'1111.3
2015-Jul-29 05:33N 56°06' W 002°52'8 8.3
2015-Jul-29 04:33N 56°03' W 003°06'7 6.9
2015-Jul-29 03:34N 56°01' W 003°18'2 0.2
2015-Jul-28 15:28N 56°00' W 003°22'0 0.0
2015-Jul-28 12:13N 56°00' W 003°22'0 0.0
2015-Jul-28 11:31N 56°00' W 003°22'0 0.0
2015-Jul-28 06:22N 56°00' W 003°22'1 1.1
2015-Jul-28 05:33N 56°01' W 003°20'9 8.8
2015-Jul-28 04:33N 56°04' W 003°05'5 5.4
2015-Jul-28 03:33N 56°04' W 002°56'0 0.1
2015-Jul-28 02:32N 56°04' W 002°56'0 0.0
2015-Jul-28 01:32N 56°04' W 002°56'0 0.0
2015-Jul-28 00:32N 56°04' W 002°56'0 0.0
2015-Jul-27 23:32N 56°04' W 002°56'0 0.0
2015-Jul-27 22:32N 56°04' W 002°56'0 0.0
2015-Jul-27 21:23N 56°04' W 002°56'0 0.0
2015-Jul-27 20:23N 56°04' W 002°56'0 0.0
2015-Jul-27 19:26N 56°04' W 002°56'0 0.0
2015-Jul-27 18:11N 56°04' W 002°56'0 0.0
2015-Jul-27 17:26N 56°04' W 002°56'0 0.0
2015-Jul-27 16:29N 56°04' W 002°56'0 0.0
2015-Jul-27 15:29N 56°04' W 002°56'0 0.0
2015-Jul-27 14:29N 56°04' W 002°56'0 0.0
2015-Jul-27 13:32N 56°04' W 002°56'0 0.0
2015-Jul-27 12:32N 56°04' W 002°56'0 0.0
2015-Jul-27 11:32N 56°04' W 002°56'0 0.1
2015-Jul-27 10:32N 56°04' W 002°56'0 0.0
2015-Jul-27 09:32N 56°04' W 002°56'0 0.0
2015-Jul-27 08:32N 56°04' W 002°56'0 0.0
2015-Jul-27 07:32N 56°04' W 002°56'0 0.0
2015-Jul-27 06:23N 56°04' W 002°56'0 0.0
2015-Jul-27 05:26N 56°04' W 002°56'0 0.0
2015-Jul-27 04:26N 56°04' W 002°56'0 0.0
2015-Jul-27 03:23N 56°04' W 002°56'0 0.0
2015-Jul-27 02:29N 56°04' W 002°56'0 0.0
2015-Jul-27 01:29N 56°04' W 002°56'0 0.1
2015-Jul-27 00:29N 56°04' W 002°56'0 0.0
2015-Jul-26 23:32N 56°04' W 002°56'0 0.0
2015-Jul-26 22:32N 56°04' W 002°56'0 0.0
2015-Jul-26 21:32N 56°04' W 002°56'0 0.0
2015-Jul-26 20:32N 56°04' W 002°56'0 0.0
2015-Jul-26 19:32N 56°04' W 002°56'0 0.0
2015-Jul-26 18:32N 56°04' W 002°56'0 0.0
2015-Jul-26 17:32N 56°04' W 002°56'0 0.0
2015-Jul-26 16:23N 56°04' W 002°56'0 0.0
2015-Jul-26 15:26N 56°04' W 002°56'0 0.0
2015-Jul-26 14:26N 56°04' W 002°56'0 0.0
2015-Jul-26 13:26N 56°04' W 002°56'0 0.0
2015-Jul-26 12:29N 56°04' W 002°56'0 0.0
2015-Jul-26 11:29N 56°04' W 002°56'0 0.0
2015-Jul-26 10:29N 56°04' W 002°56'0 0.0
2015-Jul-26 09:32N 56°04' W 002°56'0 0.0
2015-Jul-26 08:17N 56°04' W 002°56'0 0.0
2015-Jul-26 07:32N 56°04' W 002°56'0 0.0
2015-Jul-26 06:32N 56°04' W 002°56'0 0.0
2015-Jul-26 05:32N 56°04' W 002°56'0 0.1
2015-Jul-26 04:32N 56°04' W 002°56'0 0.1
2015-Jul-26 03:32N 56°04' W 002°56'0 0.0
2015-Jul-26 02:20N 56°04' W 002°56'0 0.1
2015-Jul-26 01:26N 56°04' W 002°56'0 0.0
2015-Jul-26 00:26N 56°04' W 002°56'0 0.1
2015-Jul-25 23:26N 56°04' W 002°56'0 0.2
2015-Jul-25 22:29N 56°04' W 002°56'0 0.0
2015-Jul-25 21:29N 56°04' W 002°56'0 0.0
2015-Jul-25 20:32N 56°04' W 002°56'0 0.0
2015-Jul-25 19:32N 56°04' W 002°56'0 0.0
2015-Jul-25 18:32N 56°04' W 002°56'0 0.0
2015-Jul-25 17:32N 56°04' W 002°56'0 0.1
2015-Jul-25 16:32N 56°04' W 002°56'0 0.0
2015-Jul-25 15:32N 56°04' W 002°56'0 0.2
2015-Jul-25 14:32N 56°04' W 002°56'0 0.1
2015-Jul-25 13:23N 56°04' W 002°56'0 0.1
2015-Jul-25 12:23N 56°04' W 002°56'0 0.0
2015-Jul-25 11:26N 56°04' W 002°56'  
Track history (hours):
 
Tides and Currents Weather Stations Pressure Air Temp Water Temp Dewpoint Dewpoint Depression Visibility Wind Speed Wind Dir Waves Ship Positions

Eagle Turin

Last reported at 2015-Aug-04 11:00 UTC. Time now 2015-Aug-05 06:23 UTC.
Position N 43°24' W 003°06'.

Length 246 m; draft 12 m.

Type: Tanker. MMSI: 565770000.

Wind from 060 at 8 knots

Waves 0.5 meters (2 feet), 5 second period

Barometer 1017.0 mb
Air temperature 25.0 ° C
Visibility: greater than 5.4 NM
Dewpoint 19.1 ° C

Date/timePositionNaut miles runAvg speedWind from/ knotsBaromVisibWave heightAir tempDewpointWater temp
2015-Aug-04 11:00N 43°24' W 003°06'1 0.0 060 / 81017.0 5.4 0.525.019.1
2015-Aug-03 12:22N 43°24' W 003°06'0 0.0
2015-Aug-03 06:10N 43°24' W 003°07'0 0.1
2015-Aug-03 05:28N 43°24' W 003°07'0 0.1
2015-Aug-03 04:31N 43°24' W 003°07'0 0.1
2015-Aug-03 03:31N 43°24' W 003°07'0 0.1
2015-Aug-03 02:31N 43°23' W 003°07'0 0.1
2015-Aug-03 01:31N 43°24' W 003°06'0 0.0
2015-Aug-02 22:31N 43°24' W 003°06'0 0.0
2015-Aug-02 07:11N 43°24' W 003°07'0 0.0
2015-Aug-02 02:11N 43°24' W 003°07'25 4.5
2015-Aug-01 20:30N 43°47' W 003°20'14112.5
2015-Aug-01 09:12N 45°55' W 004°41'1112.7
2015-Aug-01 08:19N 46°06' W 004°47'2212.7
2015-Aug-01 06:33N 46°26' W 005°01'2913.2
2015-Aug-01 04:24N 46°52' W 005°17'1213.7
2015-Aug-01 03:34N 47°02' W 005°25'1413.6
2015-Aug-01 02:33N 47°15' W 005°33'1412.7
2015-Aug-01 01:27N 47°28' W 005°41'15610.8
2015-Jul-31 11:00N 49°42' W 003°42'3211.5 360 / 51020.0 5.4 0.520.016.9
2015-Jul-31 08:13N 50°12' W 003°25'811.8
2015-Jul-31 07:33N 50°20' W 003°24'7 7.0
2015-Jul-31 06:34N 50°25' W 003°17'1211.6
2015-Jul-31 05:33N 50°25' W 002°59'4313.6
2015-Jul-31 02:25N 50°23' W 001°52'1615.7
2015-Jul-31 01:25N 50°23' W 001°27'1416.1
2015-Jul-31 00:33N 50°22' W 001°05'2913.8
2015-Jul-30 22:26N 50°27' W 000°20'2111.3
2015-Jul-30 20:33N 50°33' E 000°12'1010.2
2015-Jul-30 19:33N 50°35' E 000°28'1111.2
2015-Jul-30 18:33N 50°40' E 000°44'1313.0
2015-Jul-30 17:33N 50°47' E 001°01'1514.0
2015-Jul-30 16:31N 50°56' E 001°19'1414.2
2015-Jul-30 15:33N 51°06' E 001°34'1212.5
2015-Jul-30 14:33N 51°15' E 001°47'1211.5
2015-Jul-30 13:33N 51°25' E 001°55'1111.1
2015-Jul-30 12:33N 51°33' E 002°07'23510.6
2015-Jul-29 14:20N 55°13' W 000°16'7712.9
2015-Jul-29 08:21N 56°05' W 001°56'911.1
2015-Jul-29 07:33N 56°09' W 002°10'1212.3
2015-Jul-29 06:33N 56°09' W 002°32'1111.3
2015-Jul-29 05:33N 56°06' W 002°52'8 8.3
2015-Jul-29 04:33N 56°03' W 003°06'7 6.9
2015-Jul-29 03:34N 56°01' W 003°18'2 0.2
2015-Jul-28 15:28N 56°00' W 003°22'0 0.0
2015-Jul-28 12:13N 56°00' W 003°22'0 0.0
2015-Jul-28 11:31N 56°00' W 003°22'0 0.0
2015-Jul-28 06:22N 56°00' W 003°22'1 1.1
2015-Jul-28 05:33N 56°01' W 003°20'9 8.8
2015-Jul-28 04:33N 56°04' W 003°05'5 5.4
2015-Jul-28 03:33N 56°04' W 002°56'0 0.1
2015-Jul-28 02:32N 56°04' W 002°56'0 0.0
2015-Jul-28 01:32N 56°04' W 002°56'0 0.0
2015-Jul-28 00:32N 56°04' W 002°56'0 0.0
2015-Jul-27 23:32N 56°04' W 002°56'0 0.0
2015-Jul-27 22:32N 56°04' W 002°56'0 0.0
2015-Jul-27 21:23N 56°04' W 002°56'0 0.0
2015-Jul-27 20:23N 56°04' W 002°56'0 0.0
2015-Jul-27 19:26N 56°04' W 002°56'0 0.0
2015-Jul-27 18:11N 56°04' W 002°56'0 0.0
2015-Jul-27 17:26N 56°04' W 002°56'0 0.0
2015-Jul-27 16:29N 56°04' W 002°56'0 0.0
2015-Jul-27 15:29N 56°04' W 002°56'0 0.0
2015-Jul-27 14:29N 56°04' W 002°56'0 0.0
2015-Jul-27 13:32N 56°04' W 002°56'0 0.0
2015-Jul-27 12:32N 56°04' W 002°56'0 0.0
2015-Jul-27 11:32N 56°04' W 002°56'0 0.1
2015-Jul-27 10:32N 56°04' W 002°56'0 0.0
2015-Jul-27 09:32N 56°04' W 002°56'0 0.0
2015-Jul-27 08:32N 56°04' W 002°56'0 0.0
2015-Jul-27 07:32N 56°04' W 002°56'0 0.0
2015-Jul-27 06:23N 56°04' W 002°56'0 0.0
2015-Jul-27 05:26N 56°04' W 002°56'0 0.0
2015-Jul-27 04:26N 56°04' W 002°56'0 0.0
2015-Jul-27 03:23N 56°04' W 002°56'0 0.0
2015-Jul-27 02:29N 56°04' W 002°56'0 0.0
2015-Jul-27 01:29N 56°04' W 002°56'0 0.1
2015-Jul-27 00:29N 56°04' W 002°56'0 0.0
2015-Jul-26 23:32N 56°04' W 002°56'0 0.0
2015-Jul-26 22:32N 56°04' W 002°56'0 0.0
2015-Jul-26 21:32N 56°04' W 002°56'0 0.0
2015-Jul-26 20:32N 56°04' W 002°56'0 0.0
2015-Jul-26 19:32N 56°04' W 002°56'0 0.0
2015-Jul-26 18:32N 56°04' W 002°56'0 0.0
2015-Jul-26 17:32N 56°04' W 002°56'0 0.0
2015-Jul-26 16:23N 56°04' W 002°56'0 0.0
2015-Jul-26 15:26N 56°04' W 002°56'0 0.0
2015-Jul-26 14:26N 56°04' W 002°56'0 0.0
2015-Jul-26 13:26N 56°04' W 002°56'0 0.0
2015-Jul-26 12:29N 56°04' W 002°56'0 0.0
2015-Jul-26 11:29N 56°04' W 002°56'0 0.0
2015-Jul-26 10:29N 56°04' W 002°56'0 0.0
2015-Jul-26 09:32N 56°04' W 002°56'0 0.0
2015-Jul-26 08:17N 56°04' W 002°56'0 0.0
2015-Jul-26 07:32N 56°04' W 002°56'0 0.0
2015-Jul-26 06:32N 56°04' W 002°56'0 0.0
2015-Jul-26 05:32N 56°04' W 002°56'0 0.1
2015-Jul-26 04:32N 56°04' W 002°56'0 0.1
2015-Jul-26 03:32N 56°04' W 002°56'0 0.0
2015-Jul-26 02:20N 56°04' W 002°56'0 0.1
2015-Jul-26 01:26N 56°04' W 002°56'0 0.0
2015-Jul-26 00:26N 56°04' W 002°56'0 0.1
2015-Jul-25 23:26N 56°04' W 002°56'0 0.2
2015-Jul-25 22:29N 56°04' W 002°56'0 0.0
2015-Jul-25 21:29N 56°04' W 002°56'0 0.0
2015-Jul-25 20:32N 56°04' W 002°56'0 0.0
2015-Jul-25 19:32N 56°04' W 002°56'0 0.0
2015-Jul-25 18:32N 56°04' W 002°56'0 0.0
2015-Jul-25 17:32N 56°04' W 002°56'0 0.1
2015-Jul-25 16:32N 56°04' W 002°56'0 0.0
2015-Jul-25 15:32N 56°04' W 002°56'0 0.2
2015-Jul-25 14:32N 56°04' W 002°56'0 0.1
2015-Jul-25 13:23N 56°04' W 002°56'0 0.1
2015-Jul-25 12:23N 56°04' W 002°56'0 0.0
2015-Jul-25 11:26N 56°04' W 002°56'  

Dump ship's entire track history